sensor_id;sensor_type;location;lat;lon;timestamp;temperature;humidity
6863;DHT22;3470;48.738;9.616;2023-02-23T00:01:35;6.80;99.90
6863;DHT22;3470;48.738;9.616;2023-02-23T00:04:01;6.80;99.90
6863;DHT22;3470;48.738;9.616;2023-02-23T00:06:28;6.80;99.90
6863;DHT22;3470;48.738;9.616;2023-02-23T00:08:54;6.80;99.90
6863;DHT22;3470;48.738;9.616;2023-02-23T00:11:22;6.90;99.90
6863;DHT22;3470;48.738;9.616;2023-02-23T00:13:49;6.90;99.90
6863;DHT22;3470;48.738;9.616;2023-02-23T00:16:17;7.00;99.90
6863;DHT22;3470;48.738;9.616;2023-02-23T00:21:17;7.10;99.90
6863;DHT22;3470;48.738;9.616;2023-02-23T00:23:48;7.20;99.90
6863;DHT22;3470;48.738;9.616;2023-02-23T00:26:14;7.20;99.90
6863;DHT22;3470;48.738;9.616;2023-02-23T00:28:42;7.20;99.90
6863;DHT22;3470;48.738;9.616;2023-02-23T00:31:10;7.20;99.90
6863;DHT22;3470;48.738;9.616;2023-02-23T00:33:36;7.20;99.90
6863;DHT22;3470;48.738;9.616;2023-02-23T00:36:10;7.20;99.90
6863;DHT22;3470;48.738;9.616;2023-02-23T00:38:38;7.10;99.90
6863;DHT22;3470;48.738;9.616;2023-02-23T06:54:05;7.30;99.90
6863;DHT22;3470;48.738;9.616;2023-02-23T06:56:31;7.30;99.90
6863;DHT22;3470;48.738;9.616;2023-02-23T06:58:56;7.30;99.90
6863;DHT22;3470;48.738;9.616;2023-02-23T07:01:22;7.30;99.90
6863;DHT22;3470;48.738;9.616;2023-02-23T07:03:47;7.30;99.90
6863;DHT22;3470;48.738;9.616;2023-02-23T07:06:13;7.40;99.90
6863;DHT22;3470;48.738;9.616;2023-02-23T07:08:38;7.40;99.90
6863;DHT22;3470;48.738;9.616;2023-02-23T07:11:09;7.50;99.90
6863;DHT22;3470;48.738;9.616;2023-02-23T07:13:35;7.50;99.90
6863;DHT22;3470;48.738;9.616;2023-02-23T07:16:01;7.60;99.90
6863;DHT22;3470;48.738;9.616;2023-02-23T07:18:26;7.70;99.90
6863;DHT22;3470;48.738;9.616;2023-02-23T07:20:52;7.70;99.90
6863;DHT22;3470;48.738;9.616;2023-02-23T07:23:18;7.70;99.90
6863;DHT22;3470;48.738;9.616;2023-02-23T07:25:43;7.70;99.90
6863;DHT22;3470;48.738;9.616;2023-02-23T07:28:10;7.70;99.90
6863;DHT22;3470;48.738;9.616;2023-02-23T07:30:38;7.70;99.90
6863;DHT22;3470;48.738;9.616;2023-02-23T07:33:04;7.80;99.90
6863;DHT22;3470;48.738;9.616;2023-02-23T07:35:30;7.80;99.90
6863;DHT22;3470;48.738;9.616;2023-02-23T07:37:55;7.90;99.90
6863;DHT22;3470;48.738;9.616;2023-02-23T07:40:21;7.90;99.90
6863;DHT22;3470;48.738;9.616;2023-02-23T07:42:46;8.00;99.90
6863;DHT22;3470;48.738;9.616;2023-02-23T07:45:12;8.10;99.90
6863;DHT22;3470;48.738;9.616;2023-02-23T07:47:38;8.20;99.90
6863;DHT22;3470;48.738;9.616;2023-02-23T07:50:04;8.30;99.90
6863;DHT22;3470;48.738;9.616;2023-02-23T07:52:38;8.40;99.90
6863;DHT22;3470;48.738;9.616;2023-02-23T07:55:05;8.50;99.90
6863;DHT22;3470;48.738;9.616;2023-02-23T07:57:32;8.50;99.90
6863;DHT22;3470;48.738;9.616;2023-02-23T07:59:57;8.60;99.90
6863;DHT22;3470;48.738;9.616;2023-02-23T08:02:23;8.60;99.90
6863;DHT22;3470;48.738;9.616;2023-02-23T08:04:49;8.70;99.90
6863;DHT22;3470;48.738;9.616;2023-02-23T08:07:15;8.70;99.90
6863;DHT22;3470;48.738;9.616;2023-02-23T08:09:41;8.70;99.90
6863;DHT22;3470;48.738;9.616;2023-02-23T08:12:06;8.80;99.90
6863;DHT22;3470;48.738;9.616;2023-02-23T08:14:32;8.80;99.90
6863;DHT22;3470;48.738;9.616;2023-02-23T08:16:57;8.80;99.90
6863;DHT22;3470;48.738;9.616;2023-02-23T08:19:26;8.70;99.90
6863;DHT22;3470;48.738;9.616;2023-02-23T08:21:52;8.70;99.90
6863;DHT22;3470;48.738;9.616;2023-02-23T08:24:17;8.70;99.90
6863;DHT22;3470;48.738;9.616;2023-02-23T08:26:43;8.70;99.90
6863;DHT22;3470;48.738;9.616;2023-02-23T08:29:09;8.70;99.90
6863;DHT22;3470;48.738;9.616;2023-02-23T08:31:34;8.70;99.90
6863;DHT22;3470;48.738;9.616;2023-02-23T08:34:00;8.80;99.90
6863;DHT22;3470;48.738;9.616;2023-02-23T08:36:26;8.80;99.90
6863;DHT22;3470;48.738;9.616;2023-02-23T08:38:55;8.90;99.90
6863;DHT22;3470;48.738;9.616;2023-02-23T08:41:21;8.90;99.90
6863;DHT22;3470;48.738;9.616;2023-02-23T08:43:46;9.00;99.90
6863;DHT22;3470;48.738;9.616;2023-02-23T08:46:13;9.00;99.90
6863;DHT22;3470;48.738;9.616;2023-02-23T08:48:38;9.10;99.90
6863;DHT22;3470;48.738;9.616;2023-02-23T08:51:05;9.10;99.90
6863;DHT22;3470;48.738;9.616;2023-02-23T08:53:31;9.10;99.90
6863;DHT22;3470;48.738;9.616;2023-02-23T08:55:59;9.10;99.90
6863;DHT22;3470;48.738;9.616;2023-02-23T08:58:26;9.20;99.90
6863;DHT22;3470;48.738;9.616;2023-02-23T09:00:51;9.30;99.90
6863;DHT22;3470;48.738;9.616;2023-02-23T09:03:18;9.30;99.90
6863;DHT22;3470;48.738;9.616;2023-02-23T09:05:44;9.30;99.90
6863;DHT22;3470;48.738;9.616;2023-02-23T09:08:11;9.40;99.90
6863;DHT22;3470;48.738;9.616;2023-02-23T09:10:38;9.40;99.90
6863;DHT22;3470;48.738;9.616;2023-02-23T09:13:03;9.50;99.90
6863;DHT22;3470;48.738;9.616;2023-02-23T09:15:29;9.60;99.90
6863;DHT22;3470;48.738;9.616;2023-02-23T09:18:01;9.70;99.90
6863;DHT22;3470;48.738;9.616;2023-02-23T09:20:27;10.00;99.90
6863;DHT22;3470;48.738;9.616;2023-02-23T09:22:53;10.20;99.90
6863;DHT22;3470;48.738;9.616;2023-02-23T09:25:20;10.50;99.90
6863;DHT22;3470;48.738;9.616;2023-02-23T09:27:48;10.70;99.90
6863;DHT22;3470;48.738;9.616;2023-02-23T09:30:15;10.90;99.90
6863;DHT22;3470;48.738;9.616;2023-02-23T09:32:52;11.20;99.90
6863;DHT22;3470;48.738;9.616;2023-02-23T09:35:20;11.60;99.90
6863;DHT22;3470;48.738;9.616;2023-02-23T09:37:50;11.80;99.90
6863;DHT22;3470;48.738;9.616;2023-02-23T09:40:28;11.90;99.90
6863;DHT22;3470;48.738;9.616;2023-02-23T09:48:18;12.30;99.90
6863;DHT22;3470;48.738;9.616;2023-02-23T09:50:51;12.20;99.90
6863;DHT22;3470;48.738;9.616;2023-02-23T09:53:51;12.30;99.90
6863;DHT22;3470;48.738;9.616;2023-02-23T09:56:44;12.10;99.90
6863;DHT22;3470;48.738;9.616;2023-02-23T09:59:14;12.10;99.90
6863;DHT22;3470;48.738;9.616;2023-02-23T10:01:53;12.20;99.90
6863;DHT22;3470;48.738;9.616;2023-02-23T10:04:42;12.20;99.90
6863;DHT22;3470;48.738;9.616;2023-02-23T10:24:02;12.90;99.90
6863;DHT22;3470;48.738;9.616;2023-02-23T10:29:34;13.10;99.90
6863;DHT22;3470;48.738;9.616;2023-02-23T10:35:17;12.90;99.90
6863;DHT22;3470;48.738;9.616;2023-02-23T10:37:45;12.90;99.90
6863;DHT22;3470;48.738;9.616;2023-02-23T10:40:20;13.00;99.90
6863;DHT22;3470;48.738;9.616;2023-02-23T10:42:47;13.20;99.90
6863;DHT22;3470;48.738;9.616;2023-02-23T10:45:23;13.30;99.80
6863;DHT22;3470;48.738;9.616;2023-02-23T10:50:20;13.50;99.10
6863;DHT22;3470;48.738;9.616;2023-02-23T10:52:50;13.40;99.20
6863;DHT22;3470;48.738;9.616;2023-02-23T10:55:30;13.70;98.70
6863;DHT22;3470;48.738;9.616;2023-02-23T10:58:24;13.90;98.20
6863;DHT22;3470;48.738;9.616;2023-02-23T11:00:57;13.90;98.00
6863;DHT22;3470;48.738;9.616;2023-02-23T11:06:05;14.30;97.00
6863;DHT22;3470;48.738;9.616;2023-02-23T11:11:01;14.70;96.60
6863;DHT22;3470;48.738;9.616;2023-02-23T11:13:38;14.70;96.70
6863;DHT22;3470;48.738;9.616;2023-02-23T11:16:12;14.80;95.70
6863;DHT22;3470;48.738;9.616;2023-02-23T11:18:41;14.70;96.20
6863;DHT22;3470;48.738;9.616;2023-02-23T11:21:12;14.40;96.20
6863;DHT22;3470;48.738;9.616;2023-02-23T11:23:39;14.40;96.30
6863;DHT22;3470;48.738;9.616;2023-02-23T11:26:27;14.30;96.10
6863;DHT22;3470;48.738;9.616;2023-02-23T11:28:56;14.00;95.90
6863;DHT22;3470;48.738;9.616;2023-02-23T11:31:29;14.00;96.00
6863;DHT22;3470;48.738;9.616;2023-02-23T11:33:56;13.80;96.60
6863;DHT22;3470;48.738;9.616;2023-02-23T11:36:33;13.80;96.60
6863;DHT22;3470;48.738;9.616;2023-02-23T11:39:20;14.00;96.50
6863;DHT22;3470;48.738;9.616;2023-02-23T11:42:19;13.80;96.60
6863;DHT22;3470;48.738;9.616;2023-02-23T11:45:17;13.50;96.90
6863;DHT22;3470;48.738;9.616;2023-02-23T11:47:48;13.80;96.60
6863;DHT22;3470;48.738;9.616;2023-02-23T11:50:22;14.00;96.20
6863;DHT22;3470;48.738;9.616;2023-02-23T11:55:24;14.30;96.00
6863;DHT22;3470;48.738;9.616;2023-02-23T11:57:50;14.20;96.30
6863;DHT22;3470;48.738;9.616;2023-02-23T12:00:24;14.10;96.00
6863;DHT22;3470;48.738;9.616;2023-02-23T12:02:55;14.20;96.00
6863;DHT22;3470;48.738;9.616;2023-02-23T12:05:27;14.20;95.80
6863;DHT22;3470;48.738;9.616;2023-02-23T12:08:12;14.30;96.40
6863;DHT22;3470;48.738;9.616;2023-02-23T12:19:21;14.60;95.30
6863;DHT22;3470;48.738;9.616;2023-02-23T12:24:27;15.20;94.60
6863;DHT22;3470;48.738;9.616;2023-02-23T12:27:06;15.30;94.10
6863;DHT22;3470;48.738;9.616;2023-02-23T12:29:53;15.50;93.80
6863;DHT22;3470;48.738;9.616;2023-02-23T12:35:37;15.30;94.00
6863;DHT22;3470;48.738;9.616;2023-02-23T12:38:25;14.60;94.70
6863;DHT22;3470;48.738;9.616;2023-02-23T12:41:13;14.70;94.20
6863;DHT22;3470;48.738;9.616;2023-02-23T12:43:47;15.00;94.20
6863;DHT22;3470;48.738;9.616;2023-02-23T12:46:33;15.20;94.10
6863;DHT22;3470;48.738;9.616;2023-02-23T12:49:43;15.40;94.30
6863;DHT22;3470;48.738;9.616;2023-02-23T12:52:02;15.80;93.90
6863;DHT22;3470;48.738;9.616;2023-02-23T12:54:33;16.10;93.40
6863;DHT22;3470;48.738;9.616;2023-02-23T13:19:10;17.00;91.30
6863;DHT22;3470;48.738;9.616;2023-02-23T13:24:20;17.30;90.30
6863;DHT22;3470;48.738;9.616;2023-02-23T13:27:14;17.60;90.50
6863;DHT22;3470;48.738;9.616;2023-02-23T13:29:44;17.70;90.30
6863;DHT22;3470;48.738;9.616;2023-02-23T13:32:13;18.00;89.50
6863;DHT22;3470;48.738;9.616;2023-02-23T13:34:50;18.90;88.50
6863;DHT22;3470;48.738;9.616;2023-02-23T13:37:20;20.30;84.20
6863;DHT22;3470;48.738;9.616;2023-02-23T13:39:47;20.60;82.40
6863;DHT22;3470;48.738;9.616;2023-02-23T13:45:39;21.20;79.60
6863;DHT22;3470;48.738;9.616;2023-02-23T13:54:32;19.50;81.50
6863;DHT22;3470;48.738;9.616;2023-02-23T13:57:02;19.30;81.80
6863;DHT22;3470;48.738;9.616;2023-02-23T13:59:36;18.90;82.10
6863;DHT22;3470;48.738;9.616;2023-02-23T14:04:48;18.40;82.70
6863;DHT22;3470;48.738;9.616;2023-02-23T14:07:24;18.40;82.30
6863;DHT22;3470;48.738;9.616;2023-02-23T14:10:18;18.40;82.40
6863;DHT22;3470;48.738;9.616;2023-02-23T14:15:47;17.90;83.00
6863;DHT22;3470;48.738;9.616;2023-02-23T14:39:25;16.80;83.20
6863;DHT22;3470;48.738;9.616;2023-02-23T14:41:54;16.80;84.40
6863;DHT22;3470;48.738;9.616;2023-02-23T14:47:02;16.50;86.30
6863;DHT22;3470;48.738;9.616;2023-02-23T14:49:40;16.40;86.40
6863;DHT22;3470;48.738;9.616;2023-02-23T14:52:41;16.40;86.30
6863;DHT22;3470;48.738;9.616;2023-02-23T14:57:37;16.10;87.00
6863;DHT22;3470;48.738;9.616;2023-02-23T15:02:51;16.20;87.90
6863;DHT22;3470;48.738;9.616;2023-02-23T15:05:19;16.40;87.50
6863;DHT22;3470;48.738;9.616;2023-02-23T15:07:46;16.60;87.40
6863;DHT22;3470;48.738;9.616;2023-02-23T15:10:23;16.90;86.70
6863;DHT22;3470;48.738;9.616;2023-02-23T15:12:49;17.00;86.30
6863;DHT22;3470;48.738;9.616;2023-02-23T15:15:18;17.00;85.60
6863;DHT22;3470;48.738;9.616;2023-02-23T15:17:47;17.10;85.90
6863;DHT22;3470;48.738;9.616;2023-02-23T15:20:18;17.20;86.20
6863;DHT22;3470;48.738;9.616;2023-02-23T15:22:51;17.30;85.80
6863;DHT22;3470;48.738;9.616;2023-02-23T15:25:22;17.20;86.30
6863;DHT22;3470;48.738;9.616;2023-02-23T15:27:48;17.00;87.20
6863;DHT22;3470;48.738;9.616;2023-02-23T15:30:27;16.50;87.60
6863;DHT22;3470;48.738;9.616;2023-02-23T15:33:20;16.10;89.10
6863;DHT22;3470;48.738;9.616;2023-02-23T15:36:14;15.80;90.00
6863;DHT22;3470;48.738;9.616;2023-02-23T15:38:44;15.60;90.20
6863;DHT22;3470;48.738;9.616;2023-02-23T15:41:35;15.40;90.30
6863;DHT22;3470;48.738;9.616;2023-02-23T15:44:23;15.10;90.70
6863;DHT22;3470;48.738;9.616;2023-02-23T15:46:57;14.90;90.90
6863;DHT22;3470;48.738;9.616;2023-02-23T15:49:35;14.80;91.30
6863;DHT22;3470;48.738;9.616;2023-02-23T15:52:06;14.50;91.10
6863;DHT22;3470;48.738;9.616;2023-02-23T15:54:56;14.40;91.20
6863;DHT22;3470;48.738;9.616;2023-02-23T15:57:29;14.20;91.20
6863;DHT22;3470;48.738;9.616;2023-02-23T16:00:02;14.10;91.60
6863;DHT22;3470;48.738;9.616;2023-02-23T16:02:35;14.00;92.20
6863;DHT22;3470;48.738;9.616;2023-02-23T16:05:18;13.90;92.10
6863;DHT22;3470;48.738;9.616;2023-02-23T16:07:44;13.70;92.40
6863;DHT22;3470;48.738;9.616;2023-02-23T16:10:23;13.60;92.50
6863;DHT22;3470;48.738;9.616;2023-02-23T16:12:51;13.50;92.50
6863;DHT22;3470;48.738;9.616;2023-02-23T16:17:57;13.20;92.20
6863;DHT22;3470;48.738;9.616;2023-02-23T16:20:41;13.10;92.60
6863;DHT22;3470;48.738;9.616;2023-02-23T16:23:21;13.00;93.20
6863;DHT22;3470;48.738;9.616;2023-02-23T16:25:52;12.90;93.50
6863;DHT22;3470;48.738;9.616;2023-02-23T16:28:20;12.80;93.60
6863;DHT22;3470;48.738;9.616;2023-02-23T16:30:57;12.60;94.00
6863;DHT22;3470;48.738;9.616;2023-02-23T16:33:39;12.50;94.70
6863;DHT22;3470;48.738;9.616;2023-02-23T16:36:13;12.40;94.30
6863;DHT22;3470;48.738;9.616;2023-02-23T16:39:12;12.40;94.50
6863;DHT22;3470;48.738;9.616;2023-02-23T16:41:33;12.20;94.60
6863;DHT22;3470;48.738;9.616;2023-02-23T16:44:00;12.10;95.10
6863;DHT22;3470;48.738;9.616;2023-02-23T16:46:31;12.10;95.30
6863;DHT22;3470;48.738;9.616;2023-02-23T16:48:57;12.00;95.60
6863;DHT22;3470;48.738;9.616;2023-02-23T16:51:34;11.90;96.00
6863;DHT22;3470;48.738;9.616;2023-02-23T16:54:00;11.90;96.10
6863;DHT22;3470;48.738;9.616;2023-02-23T16:56:29;11.80;96.40
6863;DHT22;3470;48.738;9.616;2023-02-23T16:59:01;11.70;96.60
6863;DHT22;3470;48.738;9.616;2023-02-23T17:01:27;11.50;96.70
6863;DHT22;3470;48.738;9.616;2023-02-23T17:03:52;11.50;97.10
6863;DHT22;3470;48.738;9.616;2023-02-23T17:06:19;11.40;97.20
6863;DHT22;3470;48.738;9.616;2023-02-23T17:08:45;11.40;97.40
6863;DHT22;3470;48.738;9.616;2023-02-23T17:11:11;11.30;97.70
6863;DHT22;3470;48.738;9.616;2023-02-23T17:13:37;11.20;98.00
6863;DHT22;3470;48.738;9.616;2023-02-23T17:16:05;11.10;98.20
6863;DHT22;3470;48.738;9.616;2023-02-23T17:18:34;11.10;98.30
6863;DHT22;3470;48.738;9.616;2023-02-23T17:21:03;11.00;98.60
6863;DHT22;3470;48.738;9.616;2023-02-23T17:23:30;10.90;98.80
6863;DHT22;3470;48.738;9.616;2023-02-23T17:26:12;10.90;99.00
6863;DHT22;3470;48.738;9.616;2023-02-23T17:28:39;10.90;99.30
6863;DHT22;3470;48.738;9.616;2023-02-23T17:31:05;10.80;99.40
6863;DHT22;3470;48.738;9.616;2023-02-23T17:33:32;10.80;99.40
6863;DHT22;3470;48.738;9.616;2023-02-23T17:35:59;10.80;99.40
6863;DHT22;3470;48.738;9.616;2023-02-23T17:38:25;10.80;99.50
6863;DHT22;3470;48.738;9.616;2023-02-23T17:41:09;10.80;99.60
6863;DHT22;3470;48.738;9.616;2023-02-23T17:43:35;10.80;99.60
6863;DHT22;3470;48.738;9.616;2023-02-23T17:46:04;10.80;99.60
6863;DHT22;3470;48.738;9.616;2023-02-23T17:48:30;10.80;99.70
6863;DHT22;3470;48.738;9.616;2023-02-23T17:51:13;10.70;99.50
6863;DHT22;3470;48.738;9.616;2023-02-23T17:53:43;10.70;99.60
6863;DHT22;3470;48.738;9.616;2023-02-23T17:56:09;10.70;99.40
6863;DHT22;3470;48.738;9.616;2023-02-23T17:58:35;10.70;99.50
6863;DHT22;3470;48.738;9.616;2023-02-23T18:01:03;10.70;99.60
6863;DHT22;3470;48.738;9.616;2023-02-23T18:03:32;10.70;99.60
6863;DHT22;3470;48.738;9.616;2023-02-23T18:06:09;10.70;99.60
6863;DHT22;3470;48.738;9.616;2023-02-23T18:08:37;10.60;99.70
6863;DHT22;3470;48.738;9.616;2023-02-23T18:11:04;10.60;99.90
6863;DHT22;3470;48.738;9.616;2023-02-23T18:13:31;10.60;99.90
6863;DHT22;3470;48.738;9.616;2023-02-23T18:16:00;10.50;99.90
6863;DHT22;3470;48.738;9.616;2023-02-23T18:18:30;10.50;99.90
6863;DHT22;3470;48.738;9.616;2023-02-23T18:20:58;10.40;99.90
6863;DHT22;3470;48.738;9.616;2023-02-23T18:23:26;10.40;99.90
6863;DHT22;3470;48.738;9.616;2023-02-23T18:25:53;10.40;99.90
6863;DHT22;3470;48.738;9.616;2023-02-23T18:28:18;10.40;99.90
6863;DHT22;3470;48.738;9.616;2023-02-23T18:30:44;10.30;99.90
6863;DHT22;3470;48.738;9.616;2023-02-23T18:33:11;10.30;99.90
6863;DHT22;3470;48.738;9.616;2023-02-23T18:35:39;10.30;99.90
6863;DHT22;3470;48.738;9.616;2023-02-23T18:38:08;10.30;99.90
6863;DHT22;3470;48.738;9.616;2023-02-23T18:40:36;10.30;99.90
6863;DHT22;3470;48.738;9.616;2023-02-23T18:43:02;10.30;99.90
6863;DHT22;3470;48.738;9.616;2023-02-23T18:45:28;10.30;99.90
6863;DHT22;3470;48.738;9.616;2023-02-23T18:47:54;10.20;99.90
6863;DHT22;3470;48.738;9.616;2023-02-23T18:50:21;10.10;99.90
6863;DHT22;3470;48.738;9.616;2023-02-23T18:52:51;10.10;99.90
6863;DHT22;3470;48.738;9.616;2023-02-23T18:55:18;10.10;99.90
6863;DHT22;3470;48.738;9.616;2023-02-23T18:57:46;10.10;99.90
6863;DHT22;3470;48.738;9.616;2023-02-23T19:00:13;10.10;99.90
6863;DHT22;3470;48.738;9.616;2023-02-23T19:02:40;10.00;99.90
6863;DHT22;3470;48.738;9.616;2023-02-23T19:05:07;10.00;99.90
6863;DHT22;3470;48.738;9.616;2023-02-23T19:07:33;10.10;99.90
6863;DHT22;3470;48.738;9.616;2023-02-23T19:09:59;10.00;99.90
6863;DHT22;3470;48.738;9.616;2023-02-23T19:12:30;10.00;99.90
6863;DHT22;3470;48.738;9.616;2023-02-23T19:14:56;10.00;99.90
6863;DHT22;3470;48.738;9.616;2023-02-23T19:17:26;10.00;99.90
6863;DHT22;3470;48.738;9.616;2023-02-23T19:19:52;10.00;99.90
6863;DHT22;3470;48.738;9.616;2023-02-23T19:22:21;10.00;99.90
6863;DHT22;3470;48.738;9.616;2023-02-23T19:24:47;10.00;99.90
6863;DHT22;3470;48.738;9.616;2023-02-23T19:27:12;10.00;99.90
6863;DHT22;3470;48.738;9.616;2023-02-23T19:29:40;10.00;99.90
6863;DHT22;3470;48.738;9.616;2023-02-23T19:32:06;10.00;99.90
6863;DHT22;3470;48.738;9.616;2023-02-23T19:34:31;10.00;99.90
6863;DHT22;3470;48.738;9.616;2023-02-23T19:36:57;10.00;99.90
6863;DHT22;3470;48.738;9.616;2023-02-23T19:39:22;10.00;99.90
6863;DHT22;3470;48.738;9.616;2023-02-23T19:41:48;10.00;99.90
6863;DHT22;3470;48.738;9.616;2023-02-23T19:44:14;10.00;99.90
6863;DHT22;3470;48.738;9.616;2023-02-23T19:46:39;10.00;99.90
6863;DHT22;3470;48.738;9.616;2023-02-23T19:49:07;9.90;99.90
6863;DHT22;3470;48.738;9.616;2023-02-23T19:51:33;9.80;99.90
6863;DHT22;3470;48.738;9.616;2023-02-23T19:53:59;9.80;99.90
6863;DHT22;3470;48.738;9.616;2023-02-23T19:56:25;9.80;99.90
6863;DHT22;3470;48.738;9.616;2023-02-23T19:58:53;9.70;99.90
6863;DHT22;3470;48.738;9.616;2023-02-23T20:01:20;9.60;99.90
6863;DHT22;3470;48.738;9.616;2023-02-23T20:03:48;9.60;99.90
6863;DHT22;3470;48.738;9.616;2023-02-23T20:06:20;9.50;99.90
6863;DHT22;3470;48.738;9.616;2023-02-23T20:08:47;9.50;99.90
6863;DHT22;3470;48.738;9.616;2023-02-23T20:11:13;9.50;99.90
6863;DHT22;3470;48.738;9.616;2023-02-23T20:13:40;9.50;99.90
6863;DHT22;3470;48.738;9.616;2023-02-23T20:16:09;9.50;99.90
6863;DHT22;3470;48.738;9.616;2023-02-23T20:18:36;9.50;99.90
6863;DHT22;3470;48.738;9.616;2023-02-23T20:21:15;9.40;99.90
6863;DHT22;3470;48.738;9.616;2023-02-23T20:23:42;9.40;99.90
6863;DHT22;3470;48.738;9.616;2023-02-23T20:26:10;9.30;99.90
6863;DHT22;3470;48.738;9.616;2023-02-23T20:28:36;9.20;99.90
6863;DHT22;3470;48.738;9.616;2023-02-23T20:31:02;9.20;99.90
6863;DHT22;3470;48.738;9.616;2023-02-23T20:33:29;9.20;99.90
6863;DHT22;3470;48.738;9.616;2023-02-23T20:35:55;9.10;99.90
6863;DHT22;3470;48.738;9.616;2023-02-23T20:38:21;9.10;99.90
6863;DHT22;3470;48.738;9.616;2023-02-23T20:40:46;9.00;99.90
6863;DHT22;3470;48.738;9.616;2023-02-23T20:43:13;9.00;99.90
6863;DHT22;3470;48.738;9.616;2023-02-23T20:45:39;9.00;99.90
6863;DHT22;3470;48.738;9.616;2023-02-23T20:48:06;9.00;99.90
6863;DHT22;3470;48.738;9.616;2023-02-23T20:50:34;9.00;99.90
6863;DHT22;3470;48.738;9.616;2023-02-23T20:53:00;9.00;99.90
6863;DHT22;3470;48.738;9.616;2023-02-23T20:55:27;9.00;99.90
6863;DHT22;3470;48.738;9.616;2023-02-23T20:57:57;9.00;99.90
6863;DHT22;3470;48.738;9.616;2023-02-23T21:00:23;9.00;99.90
6863;DHT22;3470;48.738;9.616;2023-02-23T21:02:53;9.00;99.90
6863;DHT22;3470;48.738;9.616;2023-02-23T21:05:31;8.80;99.90
6863;DHT22;3470;48.738;9.616;2023-02-23T21:08:03;8.80;99.90
6863;DHT22;3470;48.738;9.616;2023-02-23T21:10:38;8.80;99.90
6863;DHT22;3470;48.738;9.616;2023-02-23T21:13:05;8.70;99.90
6863;DHT22;3470;48.738;9.616;2023-02-23T21:15:32;8.70;99.90
6863;DHT22;3470;48.738;9.616;2023-02-23T21:17:59;8.70;99.90
6863;DHT22;3470;48.738;9.616;2023-02-23T21:20:25;8.70;99.90
6863;DHT22;3470;48.738;9.616;2023-02-23T21:22:52;8.80;99.90
6863;DHT22;3470;48.738;9.616;2023-02-23T21:25:20;8.80;99.90
6863;DHT22;3470;48.738;9.616;2023-02-23T21:27:47;8.90;99.90
6863;DHT22;3470;48.738;9.616;2023-02-23T21:30:15;8.90;99.90
6863;DHT22;3470;48.738;9.616;2023-02-23T21:32:44;8.90;99.90
6863;DHT22;3470;48.738;9.616;2023-02-23T21:35:10;9.00;99.90
6863;DHT22;3470;48.738;9.616;2023-02-23T21:37:37;9.00;99.90
6863;DHT22;3470;48.738;9.616;2023-02-23T21:40:04;9.00;99.90
6863;DHT22;3470;48.738;9.616;2023-02-23T21:42:32;9.00;99.90
6863;DHT22;3470;48.738;9.616;2023-02-23T21:44:58;9.00;99.90
6863;DHT22;3470;48.738;9.616;2023-02-23T21:47:23;9.00;99.90
6863;DHT22;3470;48.738;9.616;2023-02-23T21:49:49;9.00;99.90
6863;DHT22;3470;48.738;9.616;2023-02-23T21:52:15;8.90;99.90
6863;DHT22;3470;48.738;9.616;2023-02-23T21:54:42;8.90;99.90
6863;DHT22;3470;48.738;9.616;2023-02-23T21:57:12;8.90;99.90
6863;DHT22;3470;48.738;9.616;2023-02-23T21:59:39;8.90;99.90
6863;DHT22;3470;48.738;9.616;2023-02-23T22:02:08;8.90;99.90
6863;DHT22;3470;48.738;9.616;2023-02-23T22:04:34;8.80;99.90
6863;DHT22;3470;48.738;9.616;2023-02-23T22:07:00;8.70;99.90
6863;DHT22;3470;48.738;9.616;2023-02-23T22:09:26;8.70;99.90
6863;DHT22;3470;48.738;9.616;2023-02-23T22:11:53;8.70;99.90
6863;DHT22;3470;48.738;9.616;2023-02-23T22:14:19;8.70;99.90
6863;DHT22;3470;48.738;9.616;2023-02-23T22:16:46;8.70;99.90
6863;DHT22;3470;48.738;9.616;2023-02-23T22:19:15;8.60;99.90
6863;DHT22;3470;48.738;9.616;2023-02-23T22:21:41;8.60;99.90
6863;DHT22;3470;48.738;9.616;2023-02-23T22:24:08;8.60;99.90
6863;DHT22;3470;48.738;9.616;2023-02-23T22:26:36;8.50;99.90
6863;DHT22;3470;48.738;9.616;2023-02-23T22:29:03;8.50;99.90
6863;DHT22;3470;48.738;9.616;2023-02-23T22:31:29;8.60;99.90
6863;DHT22;3470;48.738;9.616;2023-02-23T22:33:55;8.50;99.90
6863;DHT22;3470;48.738;9.616;2023-02-23T22:36:20;8.40;99.90
6863;DHT22;3470;48.738;9.616;2023-02-23T22:38:46;8.40;99.90
6863;DHT22;3470;48.738;9.616;2023-02-23T22:41:12;8.30;99.90
6863;DHT22;3470;48.738;9.616;2023-02-23T22:43:43;8.30;99.90
6863;DHT22;3470;48.738;9.616;2023-02-23T22:46:13;8.20;99.90
6863;DHT22;3470;48.738;9.616;2023-02-23T22:48:41;8.20;99.90
6863;DHT22;3470;48.738;9.616;2023-02-23T22:51:09;8.20;99.90
6863;DHT22;3470;48.738;9.616;2023-02-23T22:53:35;8.30;99.90
6863;DHT22;3470;48.738;9.616;2023-02-23T22:56:01;8.30;99.90
6863;DHT22;3470;48.738;9.616;2023-02-23T22:58:26;8.20;99.90
6863;DHT22;3470;48.738;9.616;2023-02-23T23:00:52;8.30;99.90
6863;DHT22;3470;48.738;9.616;2023-02-23T23:03:33;8.20;99.90
6863;DHT22;3470;48.738;9.616;2023-02-23T23:06:03;8.30;99.90
6863;DHT22;3470;48.738;9.616;2023-02-23T23:08:35;8.20;99.90
6863;DHT22;3470;48.738;9.616;2023-02-23T23:11:06;8.20;99.90
6863;DHT22;3470;48.738;9.616;2023-02-23T23:13:41;8.30;99.90
6863;DHT22;3470;48.738;9.616;2023-02-23T23:16:21;8.20;99.90
6863;DHT22;3470;48.738;9.616;2023-02-23T23:18:53;8.20;99.90
6863;DHT22;3470;48.738;9.616;2023-02-23T23:21:20;8.10;99.90
6863;DHT22;3470;48.738;9.616;2023-02-23T23:23:49;8.10;99.90
6863;DHT22;3470;48.738;9.616;2023-02-23T23:26:17;8.20;99.90
6863;DHT22;3470;48.738;9.616;2023-02-23T23:28:49;8.20;99.90
6863;DHT22;3470;48.738;9.616;2023-02-23T23:31:20;8.20;99.90
6863;DHT22;3470;48.738;9.616;2023-02-23T23:33:50;8.20;99.90
6863;DHT22;3470;48.738;9.616;2023-02-23T23:36:18;8.20;99.90
6863;DHT22;3470;48.738;9.616;2023-02-23T23:38:46;8.20;99.90
6863;DHT22;3470;48.738;9.616;2023-02-23T23:41:12;8.20;99.90
6863;DHT22;3470;48.738;9.616;2023-02-23T23:43:45;8.10;99.90
6863;DHT22;3470;48.738;9.616;2023-02-23T23:46:16;8.10;99.90
6863;DHT22;3470;48.738;9.616;2023-02-23T23:48:48;8.10;99.90
6863;DHT22;3470;48.738;9.616;2023-02-23T23:51:17;8.10;99.90
6863;DHT22;3470;48.738;9.616;2023-02-23T23:53:43;8.10;99.90
6863;DHT22;3470;48.738;9.616;2023-02-23T23:56:08;8.10;99.90
6863;DHT22;3470;48.738;9.616;2023-02-23T23:58:36;8.00;99.90
